sensor_id;sensor_type;location;lat;lon;timestamp;pressure;altitude;pressure_sealevel;temperature;humidity
81511;BME280;70931;48.796;8.440;2023-07-29T00:01:10;96807.75;;;16.84;88.97
81511;BME280;70931;48.796;8.440;2023-07-29T00:03:35;96801.31;;;16.85;88.64
81511;BME280;70931;48.796;8.440;2023-07-29T00:06:00;96804.88;;;16.79;88.22
81511;BME280;70931;48.796;8.440;2023-07-29T00:08:26;96793.63;;;16.64;89.04
81511;BME280;70931;48.796;8.440;2023-07-29T00:10:51;96792.97;;;16.69;88.75
81511;BME280;70931;48.796;8.440;2023-07-29T00:13:16;96800.75;;;16.77;88.93
81511;BME280;70931;48.796;8.440;2023-07-29T00:15:41;96792.03;;;16.81;88.52
81511;BME280;70931;48.796;8.440;2023-07-29T00:18:07;96796.00;;;16.79;88.40
81511;BME280;70931;48.796;8.440;2023-07-29T00:20:32;96768.97;;;16.67;88.28
81511;BME280;70931;48.796;8.440;2023-07-29T00:22:57;96786.91;;;16.73;88.90
81511;BME280;70931;48.796;8.440;2023-07-29T00:25:22;96782.22;;;16.62;89.07
81511;BME280;70931;48.796;8.440;2023-07-29T00:27:47;96796.44;;;16.76;89.31
81511;BME280;70931;48.796;8.440;2023-07-29T00:30:13;96800.66;;;16.90;89.27
81511;BME280;70931;48.796;8.440;2023-07-29T00:32:38;96781.97;;;16.95;89.01
81511;BME280;70931;48.796;8.440;2023-07-29T00:35:04;96777.75;;;16.99;89.08
81511;BME280;70931;48.796;8.440;2023-07-29T00:37:29;96766.09;;;17.05;88.65
81511;BME280;70931;48.796;8.440;2023-07-29T00:39:55;96769.56;;;17.12;88.30
81511;BME280;70931;48.796;8.440;2023-07-29T00:42:20;96766.63;;;17.14;88.61
81511;BME280;70931;48.796;8.440;2023-07-29T00:44:45;96769.53;;;16.94;88.62
81511;BME280;70931;48.796;8.440;2023-07-29T00:47:11;96779.91;;;16.90;89.56
81511;BME280;70931;48.796;8.440;2023-07-29T00:49:37;96773.91;;;17.13;88.69
81511;BME280;70931;48.796;8.440;2023-07-29T00:52:03;96780.09;;;17.14;88.75
81511;BME280;70931;48.796;8.440;2023-07-29T00:54:28;96761.69;;;17.10;88.83
81511;BME280;70931;48.796;8.440;2023-07-29T00:56:53;96709.78;;;16.61;88.36
81511;BME280;70931;48.796;8.440;2023-07-29T00:59:19;96770.16;;;17.14;88.68
81511;BME280;70931;48.796;8.440;2023-07-29T01:01:44;96766.47;;;17.08;88.78
81511;BME280;70931;48.796;8.440;2023-07-29T01:04:09;96755.59;;;17.22;88.85
81511;BME280;70931;48.796;8.440;2023-07-29T01:06:50;96765.25;;;17.29;88.42
81511;BME280;70931;48.796;8.440;2023-07-29T01:09:37;96757.34;;;17.28;88.81
81511;BME280;70931;48.796;8.440;2023-07-29T01:12:16;96761.19;;;17.20;88.96
81511;BME280;70931;48.796;8.440;2023-07-29T01:14:55;96746.81;;;17.26;88.42
81511;BME280;70931;48.796;8.440;2023-07-29T01:17:30;96741.09;;;17.16;88.85
81511;BME280;70931;48.796;8.440;2023-07-29T01:20:01;96736.94;;;17.20;88.83
81511;BME280;70931;48.796;8.440;2023-07-29T01:22:29;96717.91;;;17.15;88.32
81511;BME280;70931;48.796;8.440;2023-07-29T01:24:54;96729.59;;;17.09;89.05
81511;BME280;70931;48.796;8.440;2023-07-29T01:27:19;96738.22;;;17.18;88.78
81511;BME280;70931;48.796;8.440;2023-07-29T01:29:45;96729.16;;;17.30;88.38
81511;BME280;70931;48.796;8.440;2023-07-29T01:32:15;96743.53;;;17.24;88.25
81511;BME280;70931;48.796;8.440;2023-07-29T01:34:53;96732.75;;;17.24;88.48
81511;BME280;70931;48.796;8.440;2023-07-29T01:37:25;96736.78;;;17.33;88.37
81511;BME280;70931;48.796;8.440;2023-07-29T01:39:54;96742.63;;;17.30;88.09
81511;BME280;70931;48.796;8.440;2023-07-29T01:42:21;96733.09;;;17.28;88.37
81511;BME280;70931;48.796;8.440;2023-07-29T01:44:47;96736.09;;;17.20;88.42
81511;BME280;70931;48.796;8.440;2023-07-29T01:47:12;96728.69;;;17.15;88.61
81511;BME280;70931;48.796;8.440;2023-07-29T01:49:38;96734.81;;;17.22;88.83
81511;BME280;70931;48.796;8.440;2023-07-29T01:52:03;96736.03;;;17.26;88.56
81511;BME280;70931;48.796;8.440;2023-07-29T01:54:29;96733.94;;;17.10;88.31
81511;BME280;70931;48.796;8.440;2023-07-29T01:56:54;96733.19;;;17.21;88.85
81511;BME280;70931;48.796;8.440;2023-07-29T01:59:19;96743.81;;;17.34;88.36
81511;BME280;70931;48.796;8.440;2023-07-29T02:01:44;96737.97;;;17.37;88.55
81511;BME280;70931;48.796;8.440;2023-07-29T02:04:09;96726.91;;;17.27;88.53
81511;BME280;70931;48.796;8.440;2023-07-29T02:06:35;96720.75;;;17.20;88.92
81511;BME280;70931;48.796;8.440;2023-07-29T02:09:00;96724.56;;;17.31;88.59
81511;BME280;70931;48.796;8.440;2023-07-29T02:11:25;96714.47;;;17.26;88.46
81511;BME280;70931;48.796;8.440;2023-07-29T02:13:50;96713.72;;;17.19;88.15
81511;BME280;70931;48.796;8.440;2023-07-29T02:16:16;96737.25;;;17.30;88.50
81511;BME280;70931;48.796;8.440;2023-07-29T02:18:41;96734.03;;;17.22;88.43
81511;BME280;70931;48.796;8.440;2023-07-29T02:21:06;96722.72;;;17.13;88.20
81511;BME280;70931;48.796;8.440;2023-07-29T02:23:31;96730.72;;;17.20;88.47
81511;BME280;70931;48.796;8.440;2023-07-29T02:25:56;96730.13;;;17.18;88.49
81511;BME280;70931;48.796;8.440;2023-07-29T02:28:22;96718.81;;;17.09;88.59
81511;BME280;70931;48.796;8.440;2023-07-29T02:31:14;96719.56;;;17.16;88.72
81511;BME280;70931;48.796;8.440;2023-07-29T02:33:40;96718.22;;;17.25;89.20
81511;BME280;70931;48.796;8.440;2023-07-29T02:36:05;96726.28;;;17.25;89.01
81511;BME280;70931;48.796;8.440;2023-07-29T02:38:30;96723.78;;;17.30;89.02
81511;BME280;70931;48.796;8.440;2023-07-29T02:40:55;96699.59;;;17.24;88.54
81511;BME280;70931;48.796;8.440;2023-07-29T02:43:21;96704.91;;;17.30;88.88
81511;BME280;70931;48.796;8.440;2023-07-29T02:45:46;96723.16;;;17.28;88.97
81511;BME280;70931;48.796;8.440;2023-07-29T02:48:11;96726.59;;;17.35;88.69
81511;BME280;70931;48.796;8.440;2023-07-29T02:50:36;96705.03;;;17.35;89.09
81511;BME280;70931;48.796;8.440;2023-07-29T02:53:01;96715.50;;;17.25;89.93
81511;BME280;70931;48.796;8.440;2023-07-29T02:55:27;96722.09;;;17.47;89.25
81511;BME280;70931;48.796;8.440;2023-07-29T02:57:52;96714.31;;;17.57;89.07
81511;BME280;70931;48.796;8.440;2023-07-29T03:00:17;96709.97;;;17.56;88.63
81511;BME280;70931;48.796;8.440;2023-07-29T03:02:42;96699.66;;;17.35;88.73
81511;BME280;70931;48.796;8.440;2023-07-29T03:05:08;96696.78;;;17.48;89.16
81511;BME280;70931;48.796;8.440;2023-07-29T03:07:33;96702.31;;;17.53;88.91
81511;BME280;70931;48.796;8.440;2023-07-29T03:09:58;96697.97;;;17.52;88.77
81511;BME280;70931;48.796;8.440;2023-07-29T03:12:23;96691.94;;;17.57;88.82
81511;BME280;70931;48.796;8.440;2023-07-29T03:14:49;96686.63;;;17.50;88.90
81511;BME280;70931;48.796;8.440;2023-07-29T03:17:14;96684.75;;;17.33;89.82
81511;BME280;70931;48.796;8.440;2023-07-29T03:19:39;96713.41;;;17.45;89.36
81511;BME280;70931;48.796;8.440;2023-07-29T03:22:04;96709.53;;;17.59;88.90
81511;BME280;70931;48.796;8.440;2023-07-29T03:24:30;96700.69;;;17.52;89.60
81511;BME280;70931;48.796;8.440;2023-07-29T03:26:55;96714.47;;;17.62;89.68
81511;BME280;70931;48.796;8.440;2023-07-29T03:29:20;96705.66;;;17.55;89.55
81511;BME280;70931;48.796;8.440;2023-07-29T03:31:45;96690.19;;;17.62;89.31
81511;BME280;70931;48.796;8.440;2023-07-29T03:34:10;96692.06;;;17.62;89.84
81511;BME280;70931;48.796;8.440;2023-07-29T03:36:36;96696.31;;;17.51;90.83
81511;BME280;70931;48.796;8.440;2023-07-29T03:39:01;96688.25;;;17.70;90.35
81511;BME280;70931;48.796;8.440;2023-07-29T03:41:26;96672.22;;;17.56;90.70
81511;BME280;70931;48.796;8.440;2023-07-29T03:43:51;96682.03;;;17.69;90.63
81511;BME280;70931;48.796;8.440;2023-07-29T03:46:17;96684.97;;;17.68;90.70
81511;BME280;70931;48.796;8.440;2023-07-29T03:48:42;96687.03;;;17.65;90.79
81511;BME280;70931;48.796;8.440;2023-07-29T03:51:07;96681.19;;;17.69;90.75
81511;BME280;70931;48.796;8.440;2023-07-29T03:53:32;96688.78;;;17.60;91.07
81511;BME280;70931;48.796;8.440;2023-07-29T03:55:57;96721.78;;;17.74;90.63
81511;BME280;70931;48.796;8.440;2023-07-29T03:58:23;96731.84;;;17.67;91.11
81511;BME280;70931;48.796;8.440;2023-07-29T04:00:48;96733.78;;;17.78;90.55
81511;BME280;70931;48.796;8.440;2023-07-29T04:03:13;96734.53;;;17.85;90.42
81511;BME280;70931;48.796;8.440;2023-07-29T04:05:38;96703.31;;;17.89;90.36
81511;BME280;70931;48.796;8.440;2023-07-29T04:08:04;96705.38;;;17.75;90.80
81511;BME280;70931;48.796;8.440;2023-07-29T04:10:29;96696.91;;;17.72;90.92
81511;BME280;70931;48.796;8.440;2023-07-29T04:12:54;96697.81;;;17.65;91.31
81511;BME280;70931;48.796;8.440;2023-07-29T04:15:20;96691.84;;;17.63;91.29
81511;BME280;70931;48.796;8.440;2023-07-29T04:17:45;96690.94;;;17.70;91.20
81511;BME280;70931;48.796;8.440;2023-07-29T04:20:10;96687.69;;;17.79;90.89
81511;BME280;70931;48.796;8.440;2023-07-29T04:22:36;96684.75;;;17.81;90.36
81511;BME280;70931;48.796;8.440;2023-07-29T04:25:01;96702.16;;;17.85;90.64
81511;BME280;70931;48.796;8.440;2023-07-29T04:27:26;96691.34;;;17.85;90.40
81511;BME280;70931;48.796;8.440;2023-07-29T04:29:51;96687.47;;;17.81;90.76
81511;BME280;70931;48.796;8.440;2023-07-29T04:32:16;96685.66;;;17.75;90.94
81511;BME280;70931;48.796;8.440;2023-07-29T04:34:42;96691.53;;;17.72;91.54
81511;BME280;70931;48.796;8.440;2023-07-29T04:37:07;96696.91;;;17.72;91.29
81511;BME280;70931;48.796;8.440;2023-07-29T04:39:32;96692.53;;;17.89;90.81
81511;BME280;70931;48.796;8.440;2023-07-29T04:41:57;96695.31;;;17.82;90.96
81511;BME280;70931;48.796;8.440;2023-07-29T04:44:23;96682.31;;;17.79;90.96
81511;BME280;70931;48.796;8.440;2023-07-29T04:46:48;96691.56;;;17.83;90.96
81511;BME280;70931;48.796;8.440;2023-07-29T04:49:13;96698.66;;;17.96;90.45
81511;BME280;70931;48.796;8.440;2023-07-29T04:51:38;96674.50;;;18.01;89.98
81511;BME280;70931;48.796;8.440;2023-07-29T04:54:03;96681.88;;;18.05;89.92
81511;BME280;70931;48.796;8.440;2023-07-29T04:56:29;96697.88;;;18.07;90.08
81511;BME280;70931;48.796;8.440;2023-07-29T04:58:54;96695.41;;;18.17;89.44
81511;BME280;70931;48.796;8.440;2023-07-29T05:01:19;96683.91;;;18.10;89.59
81511;BME280;70931;48.796;8.440;2023-07-29T05:03:44;96692.22;;;18.08;90.06
81511;BME280;70931;48.796;8.440;2023-07-29T05:06:10;96671.25;;;18.10;89.44
81511;BME280;70931;48.796;8.440;2023-07-29T05:08:35;96689.06;;;18.11;89.74
81511;BME280;70931;48.796;8.440;2023-07-29T05:11:00;96699.66;;;18.13;89.47
81511;BME280;70931;48.796;8.440;2023-07-29T05:13:26;96676.88;;;18.09;89.62
81511;BME280;70931;48.796;8.440;2023-07-29T05:15:51;96688.56;;;18.03;90.13
81511;BME280;70931;48.796;8.440;2023-07-29T05:18:17;96690.91;;;17.99;90.81
81511;BME280;70931;48.796;8.440;2023-07-29T05:20:42;96698.72;;;18.19;89.70
81511;BME280;70931;48.796;8.440;2023-07-29T05:23:07;96701.28;;;18.14;90.03
81511;BME280;70931;48.796;8.440;2023-07-29T05:25:33;96704.84;;;18.26;89.44
81511;BME280;70931;48.796;8.440;2023-07-29T05:27:58;96697.47;;;17.92;90.69
81511;BME280;70931;48.796;8.440;2023-07-29T05:30:23;96684.38;;;18.07;89.82
81511;BME280;70931;48.796;8.440;2023-07-29T05:32:48;96685.50;;;17.99;90.15
81511;BME280;70931;48.796;8.440;2023-07-29T05:35:14;96703.13;;;18.02;90.75
81511;BME280;70931;48.796;8.440;2023-07-29T05:37:39;96696.25;;;18.17;89.91
81511;BME280;70931;48.796;8.440;2023-07-29T05:40:05;96691.19;;;18.09;90.51
81511;BME280;70931;48.796;8.440;2023-07-29T05:42:30;96691.56;;;18.25;90.09
81511;BME280;70931;48.796;8.440;2023-07-29T05:44:55;96695.69;;;18.27;90.18
81511;BME280;70931;48.796;8.440;2023-07-29T05:47:21;96693.38;;;18.42;89.47
81511;BME280;70931;48.796;8.440;2023-07-29T05:49:46;96705.91;;;18.37;89.87
81511;BME280;70931;48.796;8.440;2023-07-29T05:52:12;96712.84;;;18.44;89.77
81511;BME280;70931;48.796;8.440;2023-07-29T05:54:37;96700.84;;;18.40;89.87
81511;BME280;70931;48.796;8.440;2023-07-29T05:57:03;96695.72;;;18.39;89.64
81511;BME280;70931;48.796;8.440;2023-07-29T05:59:28;96712.19;;;18.49;89.45
81511;BME280;70931;48.796;8.440;2023-07-29T06:01:53;96713.44;;;18.46;89.60
81511;BME280;70931;48.796;8.440;2023-07-29T06:04:18;96714.03;;;18.48;89.35
81511;BME280;70931;48.796;8.440;2023-07-29T06:06:44;96730.50;;;18.58;88.92
81511;BME280;70931;48.796;8.440;2023-07-29T06:09:09;96711.72;;;18.52;88.75
81511;BME280;70931;48.796;8.440;2023-07-29T06:11:34;96729.00;;;18.51;89.29
81511;BME280;70931;48.796;8.440;2023-07-29T06:13:59;96746.25;;;18.61;88.99
81511;BME280;70931;48.796;8.440;2023-07-29T06:16:25;96753.91;;;18.64;88.94
81511;BME280;70931;48.796;8.440;2023-07-29T06:18:50;96751.75;;;18.55;88.93
81511;BME280;70931;48.796;8.440;2023-07-29T06:21:15;96748.84;;;18.56;88.30
81511;BME280;70931;48.796;8.440;2023-07-29T06:23:40;96754.94;;;18.63;87.90
81511;BME280;70931;48.796;8.440;2023-07-29T06:26:06;96747.31;;;18.60;88.06
81511;BME280;70931;48.796;8.440;2023-07-29T06:28:31;96756.13;;;18.67;88.23
81511;BME280;70931;48.796;8.440;2023-07-29T06:30:56;96755.53;;;18.65;88.34
81511;BME280;70931;48.796;8.440;2023-07-29T06:33:21;96756.59;;;18.64;88.52
81511;BME280;70931;48.796;8.440;2023-07-29T06:35:46;96766.00;;;18.62;88.59
81511;BME280;70931;48.796;8.440;2023-07-29T06:38:12;96770.56;;;18.61;88.89
81511;BME280;70931;48.796;8.440;2023-07-29T06:40:37;96762.47;;;18.61;88.40
81511;BME280;70931;48.796;8.440;2023-07-29T06:43:02;96763.28;;;18.62;87.00
81511;BME280;70931;48.796;8.440;2023-07-29T06:45:27;96767.75;;;18.68;87.73
81511;BME280;70931;48.796;8.440;2023-07-29T06:47:53;96774.66;;;18.52;88.17
81511;BME280;70931;48.796;8.440;2023-07-29T06:50:18;96768.06;;;18.48;87.73
81511;BME280;70931;48.796;8.440;2023-07-29T06:52:43;96768.31;;;18.58;87.94
81511;BME280;70931;48.796;8.440;2023-07-29T06:55:08;96737.97;;;18.33;87.90
81511;BME280;70931;48.796;8.440;2023-07-29T06:57:34;96769.72;;;18.49;88.30
81511;BME280;70931;48.796;8.440;2023-07-29T06:59:59;96776.91;;;18.55;88.56
81511;BME280;70931;48.796;8.440;2023-07-29T07:02:24;96758.38;;;18.41;88.47
81511;BME280;70931;48.796;8.440;2023-07-29T07:04:49;96766.13;;;18.37;88.40
81511;BME280;70931;48.796;8.440;2023-07-29T07:07:15;96754.91;;;18.52;86.08
81511;BME280;70931;48.796;8.440;2023-07-29T07:09:40;96773.97;;;18.68;87.80
81511;BME280;70931;48.796;8.440;2023-07-29T07:12:06;96749.16;;;18.48;88.00
81511;BME280;70931;48.796;8.440;2023-07-29T07:14:31;96747.66;;;18.52;88.13
81511;BME280;70931;48.796;8.440;2023-07-29T07:16:56;96767.75;;;18.68;88.41
81511;BME280;70931;48.796;8.440;2023-07-29T07:19:22;96746.50;;;18.71;87.45
81511;BME280;70931;48.796;8.440;2023-07-29T07:21:47;96773.41;;;18.90;88.35
81511;BME280;70931;48.796;8.440;2023-07-29T07:24:12;96772.13;;;19.27;87.84
81511;BME280;70931;48.796;8.440;2023-07-29T07:26:37;96770.38;;;19.44;87.01
81511;BME280;70931;48.796;8.440;2023-07-29T07:29:03;96762.50;;;19.31;85.73
81511;BME280;70931;48.796;8.440;2023-07-29T07:31:28;96751.44;;;19.44;85.39
81511;BME280;70931;48.796;8.440;2023-07-29T07:33:53;96750.47;;;19.50;83.79
81511;BME280;70931;48.796;8.440;2023-07-29T07:36:18;96748.84;;;19.49;84.83
81511;BME280;70931;48.796;8.440;2023-07-29T07:38:43;96761.75;;;19.59;84.76
81511;BME280;70931;48.796;8.440;2023-07-29T07:41:09;96748.59;;;19.51;85.83
81511;BME280;70931;48.796;8.440;2023-07-29T07:43:34;96760.78;;;19.76;84.94
81511;BME280;70931;48.796;8.440;2023-07-29T07:46:00;96751.50;;;20.01;83.57
81511;BME280;70931;48.796;8.440;2023-07-29T07:48:29;96749.47;;;19.79;82.76
81511;BME280;70931;48.796;8.440;2023-07-29T07:50:54;96751.25;;;19.74;83.68
81511;BME280;70931;48.796;8.440;2023-07-29T07:53:19;96759.25;;;19.69;85.33
81511;BME280;70931;48.796;8.440;2023-07-29T07:55:44;96772.13;;;19.50;83.38
81511;BME280;70931;48.796;8.440;2023-07-29T07:58:10;96766.72;;;19.27;84.43
81511;BME280;70931;48.796;8.440;2023-07-29T08:00:35;96778.59;;;19.49;82.92
81511;BME280;70931;48.796;8.440;2023-07-29T08:03:00;96778.34;;;19.27;85.28
81511;BME280;70931;48.796;8.440;2023-07-29T08:05:25;96778.94;;;19.29;84.58
81511;BME280;70931;48.796;8.440;2023-07-29T08:07:50;96770.72;;;19.24;85.25
81511;BME280;70931;48.796;8.440;2023-07-29T08:10:16;96775.41;;;19.29;85.12
81511;BME280;70931;48.796;8.440;2023-07-29T08:12:41;96772.72;;;19.41;82.95
81511;BME280;70931;48.796;8.440;2023-07-29T08:15:07;96790.44;;;19.71;82.42
81511;BME280;70931;48.796;8.440;2023-07-29T08:17:32;96786.91;;;20.11;82.00
81511;BME280;70931;48.796;8.440;2023-07-29T08:19:57;96783.22;;;20.17;79.34
81511;BME280;70931;48.796;8.440;2023-07-29T08:22:22;96785.75;;;20.63;80.78
81511;BME280;70931;48.796;8.440;2023-07-29T08:24:47;96782.34;;;20.89;78.04
81511;BME280;70931;48.796;8.440;2023-07-29T08:27:13;96776.59;;;21.36;78.65
81511;BME280;70931;48.796;8.440;2023-07-29T08:29:39;96780.31;;;21.68;76.55
81511;BME280;70931;48.796;8.440;2023-07-29T08:32:04;96763.91;;;22.01;74.95
81511;BME280;70931;48.796;8.440;2023-07-29T08:34:29;96779.44;;;22.54;73.60
81511;BME280;70931;48.796;8.440;2023-07-29T08:36:55;96775.41;;;22.62;71.66
81511;BME280;70931;48.796;8.440;2023-07-29T08:39:20;96774.94;;;22.65;67.68
81511;BME280;70931;48.796;8.440;2023-07-29T08:44:43;96784.19;;;22.64;70.03
81511;BME280;70931;48.796;8.440;2023-07-29T08:47:02;96782.13;;;22.28;73.73
81511;BME280;70931;48.796;8.440;2023-07-29T08:49:28;96780.59;;;21.88;73.16
81511;BME280;70931;48.796;8.440;2023-07-29T08:51:54;96759.38;;;21.25;74.12
81511;BME280;70931;48.796;8.440;2023-07-29T08:54:20;96760.03;;;21.16;72.84
81511;BME280;70931;48.796;8.440;2023-07-29T08:56:45;96782.31;;;21.18;75.54
81511;BME280;70931;48.796;8.440;2023-07-29T08:59:12;96769.06;;;21.04;74.12
81511;BME280;70931;48.796;8.440;2023-07-29T09:01:38;96749.13;;;20.77;73.78
81511;BME280;70931;48.796;8.440;2023-07-29T09:04:04;96782.78;;;20.81;75.87
81511;BME280;70931;48.796;8.440;2023-07-29T09:06:30;96760.59;;;20.23;75.24
81511;BME280;70931;48.796;8.440;2023-07-29T09:08:56;96780.50;;;20.28;74.85
81511;BME280;70931;48.796;8.440;2023-07-29T09:11:22;96779.13;;;20.14;78.22
81511;BME280;70931;48.796;8.440;2023-07-29T09:13:48;96788.25;;;19.97;77.01
81511;BME280;70931;48.796;8.440;2023-07-29T09:16:13;96780.38;;;19.83;77.69
81511;BME280;70931;48.796;8.440;2023-07-29T09:18:39;96792.13;;;19.89;78.28
81511;BME280;70931;48.796;8.440;2023-07-29T09:21:04;96762.88;;;19.74;78.75
81511;BME280;70931;48.796;8.440;2023-07-29T09:23:40;96789.22;;;19.90;79.47
81511;BME280;70931;48.796;8.440;2023-07-29T09:26:05;96801.19;;;19.95;81.11
81511;BME280;70931;48.796;8.440;2023-07-29T09:28:35;96807.34;;;19.78;81.88
81511;BME280;70931;48.796;8.440;2023-07-29T09:31:00;96799.50;;;19.77;82.36
81511;BME280;70931;48.796;8.440;2023-07-29T09:33:26;96798.38;;;19.89;82.77
81511;BME280;70931;48.796;8.440;2023-07-29T09:35:51;96787.66;;;19.95;82.68
81511;BME280;70931;48.796;8.440;2023-07-29T09:38:17;96792.88;;;20.13;81.99
81511;BME280;70931;48.796;8.440;2023-07-29T09:40:42;96794.31;;;20.04;82.02
81511;BME280;70931;48.796;8.440;2023-07-29T09:43:09;96822.84;;;19.95;83.01
81511;BME280;70931;48.796;8.440;2023-07-29T09:45:36;96782.81;;;19.57;82.49
81511;BME280;70931;48.796;8.440;2023-07-29T09:48:02;96825.63;;;19.60;83.00
81511;BME280;70931;48.796;8.440;2023-07-29T09:50:27;96804.34;;;19.40;83.15
81511;BME280;70931;48.796;8.440;2023-07-29T09:52:54;96831.38;;;19.40;83.57
81511;BME280;70931;48.796;8.440;2023-07-29T09:55:23;96830.41;;;19.11;82.82
81511;BME280;70931;48.796;8.440;2023-07-29T09:57:48;96835.72;;;19.29;84.24
81511;BME280;70931;48.796;8.440;2023-07-29T10:00:17;96806.88;;;18.89;84.23
81511;BME280;70931;48.796;8.440;2023-07-29T10:02:43;96858.28;;;19.12;83.96
81511;BME280;70931;48.796;8.440;2023-07-29T10:05:09;96838.38;;;18.95;84.99
81511;BME280;70931;48.796;8.440;2023-07-29T10:07:36;96822.97;;;18.84;84.21
81511;BME280;70931;48.796;8.440;2023-07-29T10:10:03;96860.28;;;19.05;84.46
81511;BME280;70931;48.796;8.440;2023-07-29T10:12:30;96856.50;;;19.06;83.67
81511;BME280;70931;48.796;8.440;2023-07-29T10:14:59;96856.84;;;18.98;85.03
81511;BME280;70931;48.796;8.440;2023-07-29T10:17:26;96848.72;;;18.98;83.47
81511;BME280;70931;48.796;8.440;2023-07-29T10:19:51;96828.78;;;18.99;84.27
81511;BME280;70931;48.796;8.440;2023-07-29T10:22:20;96848.88;;;19.26;85.08
81511;BME280;70931;48.796;8.440;2023-07-29T10:24:47;96826.44;;;19.37;84.31
81511;BME280;70931;48.796;8.440;2023-07-29T10:27:17;96823.03;;;19.65;84.11
81511;BME280;70931;48.796;8.440;2023-07-29T10:29:43;96843.94;;;19.69;82.71
81511;BME280;70931;48.796;8.440;2023-07-29T10:32:11;96846.63;;;19.92;83.43
81511;BME280;70931;48.796;8.440;2023-07-29T10:34:36;96854.06;;;19.85;81.91
81511;BME280;70931;48.796;8.440;2023-07-29T10:37:02;96852.41;;;20.24;82.50
81511;BME280;70931;48.796;8.440;2023-07-29T10:39:27;96858.22;;;20.16;81.32
81511;BME280;70931;48.796;8.440;2023-07-29T10:42:05;96850.44;;;20.20;80.26
81511;BME280;70931;48.796;8.440;2023-07-29T10:47:15;96857.47;;;20.21;80.65
81511;BME280;70931;48.796;8.440;2023-07-29T10:49:41;96847.94;;;21.03;77.80
81511;BME280;70931;48.796;8.440;2023-07-29T10:52:07;96862.19;;;21.27;75.62
81511;BME280;70931;48.796;8.440;2023-07-29T10:54:45;96841.13;;;21.00;76.78
81511;BME280;70931;48.796;8.440;2023-07-29T10:57:14;96842.00;;;20.89;75.73
81511;BME280;70931;48.796;8.440;2023-07-29T10:59:40;96834.75;;;20.78;75.76
81511;BME280;70931;48.796;8.440;2023-07-29T11:02:15;96840.78;;;20.80;78.43
81511;BME280;70931;48.796;8.440;2023-07-29T11:04:47;96849.88;;;20.74;77.54
81511;BME280;70931;48.796;8.440;2023-07-29T11:10:00;96835.53;;;21.24;78.58
81511;BME280;70931;48.796;8.440;2023-07-29T11:17:46;96824.28;;;23.10;73.85
81511;BME280;70931;48.796;8.440;2023-07-29T11:20:13;96810.53;;;23.64;70.08
81511;BME280;70931;48.796;8.440;2023-07-29T11:22:38;96820.66;;;24.20;65.83
81511;BME280;70931;48.796;8.440;2023-07-29T11:25:04;96793.56;;;24.81;65.18
81511;BME280;70931;48.796;8.440;2023-07-29T11:27:30;96802.03;;;25.25;68.04
81511;BME280;70931;48.796;8.440;2023-07-29T11:30:06;96811.56;;;25.32;66.31
81511;BME280;70931;48.796;8.440;2023-07-29T11:32:32;96810.19;;;25.35;65.63
81511;BME280;70931;48.796;8.440;2023-07-29T11:35:08;96809.38;;;25.44;66.47
81511;BME280;70931;48.796;8.440;2023-07-29T11:37:34;96777.69;;;25.59;63.46
81511;BME280;70931;48.796;8.440;2023-07-29T11:39:59;96816.44;;;25.76;61.98
81511;BME280;70931;48.796;8.440;2023-07-29T11:42:26;96803.25;;;25.98;60.74
81511;BME280;70931;48.796;8.440;2023-07-29T11:44:51;96790.72;;;25.87;62.50
81511;BME280;70931;48.796;8.440;2023-07-29T11:47:16;96805.28;;;25.42;62.95
81511;BME280;70931;48.796;8.440;2023-07-29T11:49:41;96785.38;;;24.96;60.12
81511;BME280;70931;48.796;8.440;2023-07-29T11:52:08;96802.81;;;25.71;61.68
81511;BME280;70931;48.796;8.440;2023-07-29T11:54:35;96789.72;;;25.63;59.75
81511;BME280;70931;48.796;8.440;2023-07-29T11:57:00;96800.66;;;25.63;60.72
81511;BME280;70931;48.796;8.440;2023-07-29T11:59:27;96798.75;;;25.53;59.84
81511;BME280;70931;48.796;8.440;2023-07-29T12:01:53;96791.91;;;24.80;59.50
81511;BME280;70931;48.796;8.440;2023-07-29T12:04:18;96803.88;;;24.74;62.69
81511;BME280;70931;48.796;8.440;2023-07-29T12:06:44;96807.66;;;24.58;61.38
81511;BME280;70931;48.796;8.440;2023-07-29T12:09:09;96797.06;;;23.89;63.71
81511;BME280;70931;48.796;8.440;2023-07-29T12:11:35;96805.97;;;23.79;63.59
81511;BME280;70931;48.796;8.440;2023-07-29T12:14:00;96783.88;;;23.71;66.05
81511;BME280;70931;48.796;8.440;2023-07-29T12:16:25;96783.88;;;23.71;66.82
81511;BME280;70931;48.796;8.440;2023-07-29T12:18:51;96785.88;;;23.91;64.89
81511;BME280;70931;48.796;8.440;2023-07-29T12:21:18;96775.88;;;24.06;66.41
81511;BME280;70931;48.796;8.440;2023-07-29T12:23:44;96798.00;;;24.15;66.73
81511;BME280;70931;48.796;8.440;2023-07-29T12:26:09;96797.34;;;23.93;65.11
81511;BME280;70931;48.796;8.440;2023-07-29T12:28:35;96795.63;;;23.35;64.09
81511;BME280;70931;48.796;8.440;2023-07-29T12:31:00;96800.47;;;23.27;67.01
81511;BME280;70931;48.796;8.440;2023-07-29T12:33:36;96796.09;;;23.21;66.44
81511;BME280;70931;48.796;8.440;2023-07-29T12:36:02;96785.25;;;23.32;65.64
81511;BME280;70931;48.796;8.440;2023-07-29T12:38:28;96794.09;;;23.44;66.44
81511;BME280;70931;48.796;8.440;2023-07-29T12:40:54;96796.84;;;23.49;67.55
81511;BME280;70931;48.796;8.440;2023-07-29T12:43:19;96799.47;;;23.80;64.85
81511;BME280;70931;48.796;8.440;2023-07-29T12:45:44;96805.22;;;23.89;66.23
81511;BME280;70931;48.796;8.440;2023-07-29T12:48:10;96799.19;;;23.82;64.84
81511;BME280;70931;48.796;8.440;2023-07-29T12:50:36;96797.88;;;23.43;65.84
81511;BME280;70931;48.796;8.440;2023-07-29T12:53:01;96787.94;;;23.26;66.96
81511;BME280;70931;48.796;8.440;2023-07-29T12:55:26;96797.34;;;23.09;66.20
81511;BME280;70931;48.796;8.440;2023-07-29T12:57:51;96791.72;;;23.20;65.00
81511;BME280;70931;48.796;8.440;2023-07-29T13:00:18;96786.22;;;23.47;65.74
81511;BME280;70931;48.796;8.440;2023-07-29T13:02:43;96780.84;;;23.25;65.16
81511;BME280;70931;48.796;8.440;2023-07-29T13:05:11;96786.47;;;23.46;65.22
81511;BME280;70931;48.796;8.440;2023-07-29T13:07:41;96790.44;;;23.75;63.09